sensor_id;sensor_type;location;lat;lon;timestamp;temperature;humidity
70550;DHT22;58101;48.658;2.328;2022-07-01T00:00:37;13.30;99.90
70550;DHT22;58101;48.658;2.328;2022-07-01T00:03:03;13.30;99.90
70550;DHT22;58101;48.658;2.328;2022-07-01T00:05:30;13.40;99.90
70550;DHT22;58101;48.658;2.328;2022-07-01T00:07:55;13.30;99.90
70550;DHT22;58101;48.658;2.328;2022-07-01T00:10:21;13.30;99.90
70550;DHT22;58101;48.658;2.328;2022-07-01T00:12:47;13.30;99.90
70550;DHT22;58101;48.658;2.328;2022-07-01T00:15:13;13.20;99.90
70550;DHT22;58101;48.658;2.328;2022-07-01T00:17:39;13.20;99.90
70550;DHT22;58101;48.658;2.328;2022-07-01T00:20:06;13.20;99.90
70550;DHT22;58101;48.658;2.328;2022-07-01T00:22:33;13.20;99.90
70550;DHT22;58101;48.658;2.328;2022-07-01T00:24:59;13.20;99.90
70550;DHT22;58101;48.658;2.328;2022-07-01T00:27:25;13.20;99.90
70550;DHT22;58101;48.658;2.328;2022-07-01T00:29:51;13.20;99.90
70550;DHT22;58101;48.658;2.328;2022-07-01T00:32:16;13.20;99.90
70550;DHT22;58101;48.658;2.328;2022-07-01T00:34:42;13.20;99.90
70550;DHT22;58101;48.658;2.328;2022-07-01T00:37:08;13.30;99.90
70550;DHT22;58101;48.658;2.328;2022-07-01T00:39:33;13.20;99.90
70550;DHT22;58101;48.658;2.328;2022-07-01T00:42:02;13.20;99.90
70550;DHT22;58101;48.658;2.328;2022-07-01T00:44:29;13.20;99.90
70550;DHT22;58101;48.658;2.328;2022-07-01T00:46:54;13.20;99.90
70550;DHT22;58101;48.658;2.328;2022-07-01T00:49:21;13.20;99.90
70550;DHT22;58101;48.658;2.328;2022-07-01T00:51:47;13.10;99.90
70550;DHT22;58101;48.658;2.328;2022-07-01T00:54:13;13.10;99.90
70550;DHT22;58101;48.658;2.328;2022-07-01T00:56:39;13.10;99.90
70550;DHT22;58101;48.658;2.328;2022-07-01T00:59:05;13.10;99.90
70550;DHT22;58101;48.658;2.328;2022-07-01T01:01:30;13.10;99.90
70550;DHT22;58101;48.658;2.328;2022-07-01T01:03:56;13.10;99.90
70550;DHT22;58101;48.658;2.328;2022-07-01T01:06:22;13.00;99.90
70550;DHT22;58101;48.658;2.328;2022-07-01T01:08:48;13.00;99.90
70550;DHT22;58101;48.658;2.328;2022-07-01T01:11:18;13.00;99.90
70550;DHT22;58101;48.658;2.328;2022-07-01T01:13:43;13.10;99.90
70550;DHT22;58101;48.658;2.328;2022-07-01T01:16:16;13.10;99.90
70550;DHT22;58101;48.658;2.328;2022-07-01T01:18:42;13.00;99.90
70550;DHT22;58101;48.658;2.328;2022-07-01T01:21:08;13.00;99.90
70550;DHT22;58101;48.658;2.328;2022-07-01T01:23:34;13.00;99.90
70550;DHT22;58101;48.658;2.328;2022-07-01T01:26:00;12.90;99.90
70550;DHT22;58101;48.658;2.328;2022-07-01T01:28:27;12.90;99.90
70550;DHT22;58101;48.658;2.328;2022-07-01T01:30:52;12.90;99.90
70550;DHT22;58101;48.658;2.328;2022-07-01T01:33:18;12.90;99.90
70550;DHT22;58101;48.658;2.328;2022-07-01T01:35:43;12.90;99.90
70550;DHT22;58101;48.658;2.328;2022-07-01T01:38:09;12.90;99.90
70550;DHT22;58101;48.658;2.328;2022-07-01T01:40:34;12.90;99.90
70550;DHT22;58101;48.658;2.328;2022-07-01T01:43:00;12.90;99.90
70550;DHT22;58101;48.658;2.328;2022-07-01T01:45:26;12.90;99.90
70550;DHT22;58101;48.658;2.328;2022-07-01T01:47:51;12.90;99.90
70550;DHT22;58101;48.658;2.328;2022-07-01T01:50:17;12.90;99.90
70550;DHT22;58101;48.658;2.328;2022-07-01T01:52:45;12.90;99.90
70550;DHT22;58101;48.658;2.328;2022-07-01T01:55:11;12.90;99.90
70550;DHT22;58101;48.658;2.328;2022-07-01T01:57:37;12.80;99.90
70550;DHT22;58101;48.658;2.328;2022-07-01T02:00:07;12.80;99.90
70550;DHT22;58101;48.658;2.328;2022-07-01T02:02:33;12.80;99.90
70550;DHT22;58101;48.658;2.328;2022-07-01T02:05:05;12.80;99.90
70550;DHT22;58101;48.658;2.328;2022-07-01T02:07:31;12.80;99.90
70550;DHT22;58101;48.658;2.328;2022-07-01T02:09:56;12.90;99.90
70550;DHT22;58101;48.658;2.328;2022-07-01T02:12:22;12.60;99.90
70550;DHT22;58101;48.658;2.328;2022-07-01T02:14:48;12.70;99.90
70550;DHT22;58101;48.658;2.328;2022-07-01T02:17:13;12.70;99.90
70550;DHT22;58101;48.658;2.328;2022-07-01T02:19:39;12.80;99.90
70550;DHT22;58101;48.658;2.328;2022-07-01T02:22:04;12.60;99.90
70550;DHT22;58101;48.658;2.328;2022-07-01T02:24:30;12.70;99.90
70550;DHT22;58101;48.658;2.328;2022-07-01T02:26:56;12.60;99.90
70550;DHT22;58101;48.658;2.328;2022-07-01T02:29:21;12.60;99.90
70550;DHT22;58101;48.658;2.328;2022-07-01T02:31:47;12.60;99.90
70550;DHT22;58101;48.658;2.328;2022-07-01T02:34:16;12.50;99.90
70550;DHT22;58101;48.658;2.328;2022-07-01T02:36:41;12.50;99.90
70550;DHT22;58101;48.658;2.328;2022-07-01T02:39:07;12.50;99.90
70550;DHT22;58101;48.658;2.328;2022-07-01T02:41:32;12.60;99.90
70550;DHT22;58101;48.658;2.328;2022-07-01T02:44:18;12.50;99.90
70550;DHT22;58101;48.658;2.328;2022-07-01T02:46:44;12.40;99.90
70550;DHT22;58101;48.658;2.328;2022-07-01T02:49:09;12.40;99.90
70550;DHT22;58101;48.658;2.328;2022-07-01T02:51:35;12.40;99.90
70550;DHT22;58101;48.658;2.328;2022-07-01T02:54:00;12.40;99.90
70550;DHT22;58101;48.658;2.328;2022-07-01T02:56:26;12.40;99.90
70550;DHT22;58101;48.658;2.328;2022-07-01T02:58:52;12.30;99.90
70550;DHT22;58101;48.658;2.328;2022-07-01T03:01:18;12.30;99.90
70550;DHT22;58101;48.658;2.328;2022-07-01T03:03:43;12.20;99.90
70550;DHT22;58101;48.658;2.328;2022-07-01T03:06:09;12.20;99.90
70550;DHT22;58101;48.658;2.328;2022-07-01T03:08:35;12.20;99.90
70550;DHT22;58101;48.658;2.328;2022-07-01T03:11:00;12.20;99.90
70550;DHT22;58101;48.658;2.328;2022-07-01T03:13:26;12.20;99.90
70550;DHT22;58101;48.658;2.328;2022-07-01T03:15:51;12.00;99.90
70550;DHT22;58101;48.658;2.328;2022-07-01T03:18:17;12.00;99.90
70550;DHT22;58101;48.658;2.328;2022-07-01T03:20:43;12.10;99.90
70550;DHT22;58101;48.658;2.328;2022-07-01T03:23:09;12.00;99.90
70550;DHT22;58101;48.658;2.328;2022-07-01T03:25:35;12.00;99.90
70550;DHT22;58101;48.658;2.328;2022-07-01T03:28:02;12.00;99.90
70550;DHT22;58101;48.658;2.328;2022-07-01T03:30:28;12.00;99.90
70550;DHT22;58101;48.658;2.328;2022-07-01T03:32:54;12.00;99.90
70550;DHT22;58101;48.658;2.328;2022-07-01T03:35:19;12.00;99.90
70550;DHT22;58101;48.658;2.328;2022-07-01T03:38:00;12.00;99.90
70550;DHT22;58101;48.658;2.328;2022-07-01T03:40:26;12.00;99.90
70550;DHT22;58101;48.658;2.328;2022-07-01T03:42:52;12.00;99.90
70550;DHT22;58101;48.658;2.328;2022-07-01T03:45:20;12.00;99.90
70550;DHT22;58101;48.658;2.328;2022-07-01T03:47:49;12.00;99.90
70550;DHT22;58101;48.658;2.328;2022-07-01T03:50:21;12.00;99.90
70550;DHT22;58101;48.658;2.328;2022-07-01T03:52:47;12.00;99.90
70550;DHT22;58101;48.658;2.328;2022-07-01T03:55:13;12.00;99.90
70550;DHT22;58101;48.658;2.328;2022-07-01T03:57:39;11.90;99.90
70550;DHT22;58101;48.658;2.328;2022-07-01T04:00:06;12.00;99.90
70550;DHT22;58101;48.658;2.328;2022-07-01T04:02:32;11.90;99.90
70550;DHT22;58101;48.658;2.328;2022-07-01T04:04:58;11.90;99.90
70550;DHT22;58101;48.658;2.328;2022-07-01T04:07:24;11.80;99.90
70550;DHT22;58101;48.658;2.328;2022-07-01T04:09:51;11.80;99.90
70550;DHT22;58101;48.658;2.328;2022-07-01T04:12:17;11.80;99.90
70550;DHT22;58101;48.658;2.328;2022-07-01T04:14:44;11.90;99.90
70550;DHT22;58101;48.658;2.328;2022-07-01T04:17:09;12.00;99.90
70550;DHT22;58101;48.658;2.328;2022-07-01T04:19:35;11.80;99.90
70550;DHT22;58101;48.658;2.328;2022-07-01T04:22:01;11.80;99.90
70550;DHT22;58101;48.658;2.328;2022-07-01T04:24:45;11.80;99.90
70550;DHT22;58101;48.658;2.328;2022-07-01T04:27:11;11.90;99.90
70550;DHT22;58101;48.658;2.328;2022-07-01T04:29:37;11.90;99.90
70550;DHT22;58101;48.658;2.328;2022-07-01T04:32:02;11.90;99.90
70550;DHT22;58101;48.658;2.328;2022-07-01T04:34:28;11.90;99.90
70550;DHT22;58101;48.658;2.328;2022-07-01T04:36:54;11.90;99.90
70550;DHT22;58101;48.658;2.328;2022-07-01T04:39:21;11.90;99.90
70550;DHT22;58101;48.658;2.328;2022-07-01T04:41:47;11.90;99.90
70550;DHT22;58101;48.658;2.328;2022-07-01T04:44:29;12.00;99.90
70550;DHT22;58101;48.658;2.328;2022-07-01T04:46:55;12.00;99.90
70550;DHT22;58101;48.658;2.328;2022-07-01T04:49:21;11.90;99.90
70550;DHT22;58101;48.658;2.328;2022-07-01T04:51:46;11.90;99.90
70550;DHT22;58101;48.658;2.328;2022-07-01T04:54:12;12.00;99.90
70550;DHT22;58101;48.658;2.328;2022-07-01T04:56:38;12.00;99.90
70550;DHT22;58101;48.658;2.328;2022-07-01T04:59:04;12.00;99.90
70550;DHT22;58101;48.658;2.328;2022-07-01T05:01:30;12.10;99.90
70550;DHT22;58101;48.658;2.328;2022-07-01T05:03:57;12.20;99.90
70550;DHT22;58101;48.658;2.328;2022-07-01T05:06:23;12.10;99.90
70550;DHT22;58101;48.658;2.328;2022-07-01T05:08:49;12.10;99.90
70550;DHT22;58101;48.658;2.328;2022-07-01T05:11:14;12.30;99.90
70550;DHT22;58101;48.658;2.328;2022-07-01T05:13:40;12.20;99.90
70550;DHT22;58101;48.658;2.328;2022-07-01T05:16:06;12.20;99.90
70550;DHT22;58101;48.658;2.328;2022-07-01T05:18:35;12.30;99.90
70550;DHT22;58101;48.658;2.328;2022-07-01T05:21:19;12.40;99.90
70550;DHT22;58101;48.658;2.328;2022-07-01T05:24:04;12.40;99.90
70550;DHT22;58101;48.658;2.328;2022-07-01T05:26:30;12.40;99.90
70550;DHT22;58101;48.658;2.328;2022-07-01T05:28:55;12.50;99.90
70550;DHT22;58101;48.658;2.328;2022-07-01T05:31:21;12.60;99.90
70550;DHT22;58101;48.658;2.328;2022-07-01T05:33:48;12.60;99.90
70550;DHT22;58101;48.658;2.328;2022-07-01T05:36:14;12.70;99.90
70550;DHT22;58101;48.658;2.328;2022-07-01T05:38:40;12.70;99.90
70550;DHT22;58101;48.658;2.328;2022-07-01T05:41:06;12.70;99.90
70550;DHT22;58101;48.658;2.328;2022-07-01T05:43:32;12.80;99.90
70550;DHT22;58101;48.658;2.328;2022-07-01T05:45:58;12.90;99.90
70550;DHT22;58101;48.658;2.328;2022-07-01T05:48:23;12.90;99.90
70550;DHT22;58101;48.658;2.328;2022-07-01T05:50:50;13.00;99.90
70550;DHT22;58101;48.658;2.328;2022-07-01T05:53:16;13.10;99.90
70550;DHT22;58101;48.658;2.328;2022-07-01T05:55:42;13.10;99.90
70550;DHT22;58101;48.658;2.328;2022-07-01T05:58:10;13.20;99.90
70550;DHT22;58101;48.658;2.328;2022-07-01T06:00:36;13.30;99.90
70550;DHT22;58101;48.658;2.328;2022-07-01T06:03:03;13.40;99.90
70550;DHT22;58101;48.658;2.328;2022-07-01T06:05:28;13.50;99.90
70550;DHT22;58101;48.658;2.328;2022-07-01T06:07:55;13.60;99.90
70550;DHT22;58101;48.658;2.328;2022-07-01T06:10:22;13.70;99.90
70550;DHT22;58101;48.658;2.328;2022-07-01T06:12:48;13.70;99.90
70550;DHT22;58101;48.658;2.328;2022-07-01T06:15:14;13.80;99.90
70550;DHT22;58101;48.658;2.328;2022-07-01T06:17:41;13.90;99.90
70550;DHT22;58101;48.658;2.328;2022-07-01T06:20:07;14.00;99.90
70550;DHT22;58101;48.658;2.328;2022-07-01T06:22:34;14.00;99.90
70550;DHT22;58101;48.658;2.328;2022-07-01T06:25:00;14.10;99.90
70550;DHT22;58101;48.658;2.328;2022-07-01T06:27:26;14.20;99.90
70550;DHT22;58101;48.658;2.328;2022-07-01T06:29:52;14.30;99.90
70550;DHT22;58101;48.658;2.328;2022-07-01T06:32:18;14.40;99.90
70550;DHT22;58101;48.658;2.328;2022-07-01T06:34:44;14.50;99.90
70550;DHT22;58101;48.658;2.328;2022-07-01T06:37:09;14.60;99.90
70550;DHT22;58101;48.658;2.328;2022-07-01T06:39:35;14.60;99.90
70550;DHT22;58101;48.658;2.328;2022-07-01T06:42:01;14.70;99.90
70550;DHT22;58101;48.658;2.328;2022-07-01T06:44:26;14.80;99.90
70550;DHT22;58101;48.658;2.328;2022-07-01T06:46:52;14.90;99.90
70550;DHT22;58101;48.658;2.328;2022-07-01T06:49:18;15.00;99.90
70550;DHT22;58101;48.658;2.328;2022-07-01T06:51:44;15.10;99.90
70550;DHT22;58101;48.658;2.328;2022-07-01T06:54:10;15.20;99.90
70550;DHT22;58101;48.658;2.328;2022-07-01T06:56:36;15.30;99.90
70550;DHT22;58101;48.658;2.328;2022-07-01T06:59:01;15.40;99.70
70550;DHT22;58101;48.658;2.328;2022-07-01T07:01:27;15.50;98.00
70550;DHT22;58101;48.658;2.328;2022-07-01T07:03:53;15.50;96.40
70550;DHT22;58101;48.658;2.328;2022-07-01T07:06:19;15.60;95.40
70550;DHT22;58101;48.658;2.328;2022-07-01T07:08:45;15.70;96.10
70550;DHT22;58101;48.658;2.328;2022-07-01T07:11:10;15.80;93.30
70550;DHT22;58101;48.658;2.328;2022-07-01T07:13:36;15.90;94.30
70550;DHT22;58101;48.658;2.328;2022-07-01T07:16:02;15.90;93.90
70550;DHT22;58101;48.658;2.328;2022-07-01T07:18:28;16.00;93.40
70550;DHT22;58101;48.658;2.328;2022-07-01T07:20:54;16.10;93.10
70550;DHT22;58101;48.658;2.328;2022-07-01T07:23:19;16.20;92.70
70550;DHT22;58101;48.658;2.328;2022-07-01T07:25:45;16.30;91.90
70550;DHT22;58101;48.658;2.328;2022-07-01T07:28:11;16.40;90.50
70550;DHT22;58101;48.658;2.328;2022-07-01T07:30:37;16.50;85.90
70550;DHT22;58101;48.658;2.328;2022-07-01T07:33:03;16.50;85.50
70550;DHT22;58101;48.658;2.328;2022-07-01T07:35:28;16.60;84.60
70550;DHT22;58101;48.658;2.328;2022-07-01T07:37:54;16.70;85.00
70550;DHT22;58101;48.658;2.328;2022-07-01T07:40:20;16.80;82.50
70550;DHT22;58101;48.658;2.328;2022-07-01T07:42:47;16.80;74.40
70550;DHT22;58101;48.658;2.328;2022-07-01T07:45:14;16.70;75.40
70550;DHT22;58101;48.658;2.328;2022-07-01T07:47:44;16.70;78.80
70550;DHT22;58101;48.658;2.328;2022-07-01T07:50:10;16.70;76.40
70550;DHT22;58101;48.658;2.328;2022-07-01T07:52:36;16.80;75.60
70550;DHT22;58101;48.658;2.328;2022-07-01T07:55:03;16.90;75.10
70550;DHT22;58101;48.658;2.328;2022-07-01T07:57:28;17.10;73.70
70550;DHT22;58101;48.658;2.328;2022-07-01T07:59:54;17.20;72.40
70550;DHT22;58101;48.658;2.328;2022-07-01T08:02:21;17.30;73.70
70550;DHT22;58101;48.658;2.328;2022-07-01T08:04:47;17.40;72.90
70550;DHT22;58101;48.658;2.328;2022-07-01T08:07:12;17.60;73.80
70550;DHT22;58101;48.658;2.328;2022-07-01T08:09:38;17.70;72.00
70550;DHT22;58101;48.658;2.328;2022-07-01T08:12:04;17.80;68.60
70550;DHT22;58101;48.658;2.328;2022-07-01T08:14:30;17.90;69.40
70550;DHT22;58101;48.658;2.328;2022-07-01T08:16:55;17.80;68.50
70550;DHT22;58101;48.658;2.328;2022-07-01T08:19:21;17.90;69.30
70550;DHT22;58101;48.658;2.328;2022-07-01T08:21:47;18.00;69.30
70550;DHT22;58101;48.658;2.328;2022-07-01T08:24:13;18.10;69.90
70550;DHT22;58101;48.658;2.328;2022-07-01T08:26:38;18.20;69.10
70550;DHT22;58101;48.658;2.328;2022-07-01T08:29:04;18.30;67.80
70550;DHT22;58101;48.658;2.328;2022-07-01T08:31:30;18.40;67.10
70550;DHT22;58101;48.658;2.328;2022-07-01T08:33:57;18.50;66.20
70550;DHT22;58101;48.658;2.328;2022-07-01T08:36:22;18.60;67.50
70550;DHT22;58101;48.658;2.328;2022-07-01T08:38:48;18.70;66.60
70550;DHT22;58101;48.658;2.328;2022-07-01T08:41:15;18.80;65.10
70550;DHT22;58101;48.658;2.328;2022-07-01T08:43:41;18.90;65.20
70550;DHT22;58101;48.658;2.328;2022-07-01T08:46:07;18.90;63.80
70550;DHT22;58101;48.658;2.328;2022-07-01T08:48:33;19.00;62.70
70550;DHT22;58101;48.658;2.328;2022-07-01T08:50:59;19.00;62.60
70550;DHT22;58101;48.658;2.328;2022-07-01T08:53:30;18.90;63.10
70550;DHT22;58101;48.658;2.328;2022-07-01T08:55:55;18.90;64.10
70550;DHT22;58101;48.658;2.328;2022-07-01T08:58:39;19.10;62.70
70550;DHT22;58101;48.658;2.328;2022-07-01T09:01:13;19.10;60.70
70550;DHT22;58101;48.658;2.328;2022-07-01T09:03:39;18.90;61.60
70550;DHT22;58101;48.658;2.328;2022-07-01T09:06:15;19.10;62.90
70550;DHT22;58101;48.658;2.328;2022-07-01T09:08:42;19.20;64.70
70550;DHT22;58101;48.658;2.328;2022-07-01T09:11:15;19.30;61.30
70550;DHT22;58101;48.658;2.328;2022-07-01T09:13:42;19.30;61.50
70550;DHT22;58101;48.658;2.328;2022-07-01T09:16:15;19.50;62.20
70550;DHT22;58101;48.658;2.328;2022-07-01T09:19:03;19.60;61.80
70550;DHT22;58101;48.658;2.328;2022-07-01T09:21:30;19.60;60.10
70550;DHT22;58101;48.658;2.328;2022-07-01T09:23:57;19.50;59.80
70550;DHT22;58101;48.658;2.328;2022-07-01T09:26:23;19.60;59.80
70550;DHT22;58101;48.658;2.328;2022-07-01T09:28:56;19.80;59.80
70550;DHT22;58101;48.658;2.328;2022-07-01T09:31:29;20.40;59.70
70550;DHT22;58101;48.658;2.328;2022-07-01T09:34:13;21.30;58.80
70550;DHT22;58101;48.658;2.328;2022-07-01T09:36:39;22.00;52.20
70550;DHT22;58101;48.658;2.328;2022-07-01T09:39:05;22.10;52.80
70550;DHT22;58101;48.658;2.328;2022-07-01T09:41:38;22.00;52.20
70550;DHT22;58101;48.658;2.328;2022-07-01T09:44:05;22.50;53.40
70550;DHT22;58101;48.658;2.328;2022-07-01T09:46:31;23.00;51.80
70550;DHT22;58101;48.658;2.328;2022-07-01T09:48:56;24.00;49.40
70550;DHT22;58101;48.658;2.328;2022-07-01T09:51:22;25.40;45.10
70550;DHT22;58101;48.658;2.328;2022-07-01T09:53:47;25.40;42.10
70550;DHT22;58101;48.658;2.328;2022-07-01T09:56:13;25.60;40.00
70550;DHT22;58101;48.658;2.328;2022-07-01T09:58:39;25.70;41.70
70550;DHT22;58101;48.658;2.328;2022-07-01T10:01:08;26.10;41.10
70550;DHT22;58101;48.658;2.328;2022-07-01T10:03:37;26.80;39.90
70550;DHT22;58101;48.658;2.328;2022-07-01T10:14:09;28.30;35.20
70550;DHT22;58101;48.658;2.328;2022-07-01T10:16:36;27.00;36.00
70550;DHT22;58101;48.658;2.328;2022-07-01T10:21:55;25.00;41.10
70550;DHT22;58101;48.658;2.328;2022-07-01T10:24:23;25.00;41.40
70550;DHT22;58101;48.658;2.328;2022-07-01T10:26:59;25.40;41.20
70550;DHT22;58101;48.658;2.328;2022-07-01T10:29:36;25.80;39.40
70550;DHT22;58101;48.658;2.328;2022-07-01T10:32:07;25.80;38.90
70550;DHT22;58101;48.658;2.328;2022-07-01T10:34:35;25.60;39.70
70550;DHT22;58101;48.658;2.328;2022-07-01T10:37:07;25.00;40.60
70550;DHT22;58101;48.658;2.328;2022-07-01T10:42:18;23.90;42.90
70550;DHT22;58101;48.658;2.328;2022-07-01T10:47:30;25.20;45.00
70550;DHT22;58101;48.658;2.328;2022-07-01T10:50:04;25.90;41.60
70550;DHT22;58101;48.658;2.328;2022-07-01T10:52:30;26.40;41.50
70550;DHT22;58101;48.658;2.328;2022-07-01T10:54:59;26.70;39.10
70550;DHT22;58101;48.658;2.328;2022-07-01T10:57:37;26.60;38.90
70550;DHT22;58101;48.658;2.328;2022-07-01T11:02:33;25.40;39.60
70550;DHT22;58101;48.658;2.328;2022-07-01T11:05:13;24.80;42.10
70550;DHT22;58101;48.658;2.328;2022-07-01T11:07:44;24.00;42.80
70550;DHT22;58101;48.658;2.328;2022-07-01T11:10:15;23.80;45.20
70550;DHT22;58101;48.658;2.328;2022-07-01T11:12:42;23.90;45.70
70550;DHT22;58101;48.658;2.328;2022-07-01T11:15:10;23.90;44.10
70550;DHT22;58101;48.658;2.328;2022-07-01T11:17:42;23.60;44.50
70550;DHT22;58101;48.658;2.328;2022-07-01T11:20:08;23.30;44.90
70550;DHT22;58101;48.658;2.328;2022-07-01T11:22:34;23.10;45.80
70550;DHT22;58101;48.658;2.328;2022-07-01T11:25:10;22.90;47.90
70550;DHT22;58101;48.658;2.328;2022-07-01T11:27:37;22.70;47.90
70550;DHT22;58101;48.658;2.328;2022-07-01T11:30:06;22.60;47.40
70550;DHT22;58101;48.658;2.328;2022-07-01T11:32:35;22.40;47.60
70550;DHT22;58101;48.658;2.328;2022-07-01T11:35:04;22.80;48.60
70550;DHT22;58101;48.658;2.328;2022-07-01T11:37:50;23.50;47.90
70550;DHT22;58101;48.658;2.328;2022-07-01T11:40:35;24.40;45.00
70550;DHT22;58101;48.658;2.328;2022-07-01T11:43:01;24.80;44.10
70550;DHT22;58101;48.658;2.328;2022-07-01T11:45:26;25.20;42.00
70550;DHT22;58101;48.658;2.328;2022-07-01T11:47:53;25.50;39.00
70550;DHT22;58101;48.658;2.328;2022-07-01T11:50:20;25.70;39.70
70550;DHT22;58101;48.658;2.328;2022-07-01T11:52:46;25.60;39.70
70550;DHT22;58101;48.658;2.328;2022-07-01T11:55:12;25.30;38.40
70550;DHT22;58101;48.658;2.328;2022-07-01T11:57:37;24.70;39.50
70550;DHT22;58101;48.658;2.328;2022-07-01T12:00:11;24.40;41.00
70550;DHT22;58101;48.658;2.328;2022-07-01T12:02:37;24.10;41.80
70550;DHT22;58101;48.658;2.328;2022-07-01T12:05:04;23.80;43.40
70550;DHT22;58101;48.658;2.328;2022-07-01T12:07:30;23.60;43.70
70550;DHT22;58101;48.658;2.328;2022-07-01T12:09:57;23.30;42.90
70550;DHT22;58101;48.658;2.328;2022-07-01T12:12:24;23.00;43.60
70550;DHT22;58101;48.658;2.328;2022-07-01T12:14:55;22.60;44.80
70550;DHT22;58101;48.658;2.328;2022-07-01T12:17:21;22.70;46.20
70550;DHT22;58101;48.658;2.328;2022-07-01T12:19:49;22.90;43.90
70550;DHT22;58101;48.658;2.328;2022-07-01T12:22:17;23.10;43.00
70550;DHT22;58101;48.658;2.328;2022-07-01T12:24:49;23.50;43.20
70550;DHT22;58101;48.658;2.328;2022-07-01T12:27:15;23.90;42.00
70550;DHT22;58101;48.658;2.328;2022-07-01T12:32:23;25.00;42.00
70550;DHT22;58101;48.658;2.328;2022-07-01T12:37:35;25.50;38.80
70550;DHT22;58101;48.658;2.328;2022-07-01T12:40:03;25.70;38.60
70550;DHT22;58101;48.658;2.328;2022-07-01T12:45:04;25.30;38.50
70550;DHT22;58101;48.658;2.328;2022-07-01T12:52:37;24.70;39.30
70550;DHT22;58101;48.658;2.328;2022-07-01T12:55:20;24.70;40.10
70550;DHT22;58101;48.658;2.328;2022-07-01T12:57:49;24.50;38.50
70550;DHT22;58101;48.658;2.328;2022-07-01T13:00:17;24.60;38.70
70550;DHT22;58101;48.658;2.328;2022-07-01T13:02:43;24.60;39.20
70550;DHT22;58101;48.658;2.328;2022-07-01T13:05:10;24.80;40.20
70550;DHT22;58101;48.658;2.328;2022-07-01T13:07:36;25.20;38.60
70550;DHT22;58101;48.658;2.328;2022-07-01T13:10:01;25.20;38.10
70550;DHT22;58101;48.658;2.328;2022-07-01T13:12:28;24.90;38.00
70550;DHT22;58101;48.658;2.328;2022-07-01T13:14:54;24.70;38.70
70550;DHT22;58101;48.658;2.328;2022-07-01T13:17:20;24.60;39.50
70550;DHT22;58101;48.658;2.328;2022-07-01T13:19:47;24.40;40.90
70550;DHT22;58101;48.658;2.328;2022-07-01T13:22:14;24.40;41.30
70550;DHT22;58101;48.658;2.328;2022-07-01T13:24:40;24.20;41.10
70550;DHT22;58101;48.658;2.328;2022-07-01T13:27:05;23.80;40.40
70550;DHT22;58101;48.658;2.328;2022-07-01T13:29:31;23.40;42.30
70550;DHT22;58101;48.658;2.328;2022-07-01T13:31:57;23.30;41.50
70550;DHT22;58101;48.658;2.328;2022-07-01T13:34:22;23.10;42.20
70550;DHT22;58101;48.658;2.328;2022-07-01T13:36:48;23.20;42.70
70550;DHT22;58101;48.658;2.328;2022-07-01T13:39:13;23.50;42.70
70550;DHT22;58101;48.658;2.328;2022-07-01T13:41:39;23.90;41.70
70550;DHT22;58101;48.658;2.328;2022-07-01T13:44:05;24.20;41.20
70550;DHT22;58101;48.658;2.328;2022-07-01T13:46:30;24.50;40.30
70550;DHT22;58101;48.658;2.328;2022-07-01T13:48:56;24.80;39.90
70550;DHT22;58101;48.658;2.328;2022-07-01T13:51:22;25.30;39.70
70550;DHT22;58101;48.658;2.328;2022-07-01T13:53:47;25.40;37.40
70550;DHT22;58101;48.658;2.328;2022-07-01T13:56:13;25.50;35.70
70550;DHT22;58101;48.658;2.328;2022-07-01T13:58:38;25.40;35.80
70550;DHT22;58101;48.658;2.328;2022-07-01T14:01:04;25.10;36.90
70550;DHT22;58101;48.658;2.328;2022-07-01T14:03:30;24.90;36.90
70550;DHT22;58101;48.658;2.328;2022-07-01T14:05:56;24.50;37.80
70550;DHT22;58101;48.658;2.328;2022-07-01T14:08:21;24.40;37.80
70550;DHT22;58101;48.658;2.328;2022-07-01T14:10:47;24.30;39.70
70550;DHT22;58101;48.658;2.328;2022-07-01T14:13:12;24.40;40.00
70550;DHT22;58101;48.658;2.328;2022-07-01T14:15:38;24.60;39.90
70550;DHT22;58101;48.658;2.328;2022-07-01T14:18:04;25.00;40.50
70550;DHT22;58101;48.658;2.328;2022-07-01T14:20:30;25.30;40.60
70550;DHT22;58101;48.658;2.328;2022-07-01T14:22:55;25.40;38.00
70550;DHT22;58101;48.658;2.328;2022-07-01T14:25:22;25.20;37.20
70550;DHT22;58101;48.658;2.328;2022-07-01T14:27:47;25.00;35.50
70550;DHT22;58101;48.658;2.328;2022-07-01T14:30:15;24.80;37.20
70550;DHT22;58101;48.658;2.328;2022-07-01T14:32:41;24.60;37.60
70550;DHT22;58101;48.658;2.328;2022-07-01T14:35:07;24.50;38.50
70550;DHT22;58101;48.658;2.328;2022-07-01T14:37:33;24.40;37.90
70550;DHT22;58101;48.658;2.328;2022-07-01T14:39:58;23.90;37.20
70550;DHT22;58101;48.658;2.328;2022-07-01T14:42:25;23.60;39.30
70550;DHT22;58101;48.658;2.328;2022-07-01T14:44:51;23.50;40.20
70550;DHT22;58101;48.658;2.328;2022-07-01T14:47:18;23.50;40.80
70550;DHT22;58101;48.658;2.328;2022-07-01T14:49:43;23.60;40.70
70550;DHT22;58101;48.658;2.328;2022-07-01T14:52:10;23.60;40.90
70550;DHT22;58101;48.658;2.328;2022-07-01T14:54:38;23.70;40.50
70550;DHT22;58101;48.658;2.328;2022-07-01T14:57:04;23.80;40.20
70550;DHT22;58101;48.658;2.328;2022-07-01T14:59:31;23.90;40.10
70550;DHT22;58101;48.658;2.328;2022-07-01T15:01:56;24.00;40.60
70550;DHT22;58101;48.658;2.328;2022-07-01T15:04:26;24.10;39.50
70550;DHT22;58101;48.658;2.328;2022-07-01T15:06:51;24.10;38.50
70550;DHT22;58101;48.658;2.328;2022-07-01T15:09:17;23.80;37.90
70550;DHT22;58101;48.658;2.328;2022-07-01T15:11:47;23.60;38.50
70550;DHT22;58101;48.658;2.328;2022-07-01T15:14:13;23.50;39.30
70550;DHT22;58101;48.658;2.328;2022-07-01T15:16:40;23.50;39.50
70550;DHT22;58101;48.658;2.328;2022-07-01T15:19:06;23.50;39.50
70550;DHT22;58101;48.658;2.328;2022-07-01T15:21:32;23.50;39.10
70550;DHT22;58101;48.658;2.328;2022-07-01T15:23:58;23.30;39.60
70550;DHT22;58101;48.658;2.328;2022-07-01T15:26:23;23.30;39.30
70550;DHT22;58101;48.658;2.328;2022-07-01T15:28:49;23.30;40.70
70550;DHT22;58101;48.658;2.328;2022-07-01T15:31:15;23.40;40.10
70550;DHT22;58101;48.658;2.328;2022-07-01T15:33:42;23.60;40.10
70550;DHT22;58101;48.658;2.328;2022-07-01T15:36:08;24.00;39.80
70550;DHT22;58101;48.658;2.328;2022-07-01T15:38:39;24.10;38.00
70550;DHT22;58101;48.658;2.328;2022-07-01T15:41:05;24.10;38.70
70550;DHT22;58101;48.658;2.328;2022-07-01T15:43:34;23.90;37.80
70550;DHT22;58101;48.658;2.328;2022-07-01T15:46:00;23.70;38.50
70550;DHT22;58101;48.658;2.328;2022-07-01T15:48:26;23.60;38.70
70550;DHT22;58101;48.658;2.328;2022-07-01T15:50:52;23.50;39.40
70550;DHT22;58101;48.658;2.328;2022-07-01T15:53:19;23.30;40.30
70550;DHT22;58101;48.658;2.328;2022-07-01T15:55:49;23.10;39.70
70550;DHT22;58101;48.658;2.328;2022-07-01T15:58:16;23.10;40.40
70550;DHT22;58101;48.658;2.328;2022-07-01T16:00:45;23.20;40.30